sensor_id;sensor_type;location;lat;lon;timestamp;pressure;altitude;pressure_sealevel;temperature;humidity
38227;BME280;24026;49.446;8.576;2022-11-20T00:02:03;100086.09;;;12.20;55.29
38227;BME280;24026;49.446;8.576;2022-11-20T00:04:23;100098.63;;;12.20;55.41
38227;BME280;24026;49.446;8.576;2022-11-20T00:06:43;100086.09;;;12.20;55.41
38227;BME280;24026;49.446;8.576;2022-11-20T00:09:03;100086.34;;;12.19;55.41
38227;BME280;24026;49.446;8.576;2022-11-20T00:11:25;100090.63;;;12.20;55.35
38227;BME280;24026;49.446;8.576;2022-11-20T00:13:47;100102.06;;;12.20;55.41
38227;BME280;24026;49.446;8.576;2022-11-20T00:16:09;100086.88;;;12.21;55.35
38227;BME280;24026;49.446;8.576;2022-11-20T00:18:29;100094.88;;;12.21;55.24
38227;BME280;24026;49.446;8.576;2022-11-20T00:20:50;100098.63;;;12.20;55.26
38227;BME280;24026;49.446;8.576;2022-11-20T00:23:10;100090.34;;;12.16;55.48
38227;BME280;24026;49.446;8.576;2022-11-20T00:25:30;100088.47;;;12.17;55.52
38227;BME280;24026;49.446;8.576;2022-11-20T00:27:50;100095.66;;;12.16;55.41
38227;BME280;24026;49.446;8.576;2022-11-20T00:30:11;100093.53;;;12.18;55.33
38227;BME280;24026;49.446;8.576;2022-11-20T00:32:31;100092.19;;;12.16;55.36
38227;BME280;24026;49.446;8.576;2022-11-20T00:34:52;100078.06;;;12.15;55.45
38227;BME280;24026;49.446;8.576;2022-11-20T00:37:12;100086.84;;;12.16;55.31
38227;BME280;24026;49.446;8.576;2022-11-20T00:39:32;100084.75;;;12.18;55.25
38227;BME280;24026;49.446;8.576;2022-11-20T00:41:52;100094.84;;;12.16;55.37
38227;BME280;24026;49.446;8.576;2022-11-20T00:44:13;100093.00;;;12.16;55.36
38227;BME280;24026;49.446;8.576;2022-11-20T00:46:33;100099.91;;;12.17;55.27
38227;BME280;24026;49.446;8.576;2022-11-20T00:48:54;100089.78;;;12.14;55.30
38227;BME280;24026;49.446;8.576;2022-11-20T00:51:15;100090.03;;;12.13;55.44
38227;BME280;24026;49.446;8.576;2022-11-20T00:53:35;100088.97;;;12.14;55.26
38227;BME280;24026;49.446;8.576;2022-11-20T00:55:56;100090.84;;;12.13;55.43
38227;BME280;24026;49.446;8.576;2022-11-20T00:58:19;100097.78;;;12.14;55.41
38227;BME280;24026;49.446;8.576;2022-11-20T01:00:39;100095.38;;;12.13;55.27
38227;BME280;24026;49.446;8.576;2022-11-20T01:02:59;100090.59;;;12.15;55.23
38227;BME280;24026;49.446;8.576;2022-11-20T01:05:20;100099.63;;;12.14;55.24
38227;BME280;24026;49.446;8.576;2022-11-20T01:07:40;100098.34;;;12.16;55.14
38227;BME280;24026;49.446;8.576;2022-11-20T01:10:00;100096.72;;;12.15;55.29
38227;BME280;24026;49.446;8.576;2022-11-20T01:12:20;100086.06;;;12.15;55.11
38227;BME280;24026;49.446;8.576;2022-11-20T01:14:41;100095.09;;;12.14;55.23
38227;BME280;24026;49.446;8.576;2022-11-20T01:17:01;100094.31;;;12.14;55.16
38227;BME280;24026;49.446;8.576;2022-11-20T01:19:22;100093.53;;;12.13;55.23
38227;BME280;24026;49.446;8.576;2022-11-20T01:21:43;100100.69;;;12.13;55.16
38227;BME280;24026;49.446;8.576;2022-11-20T01:24:04;100090.84;;;12.13;55.12
38227;BME280;24026;49.446;8.576;2022-11-20T01:26:26;100100.44;;;12.14;55.15
38227;BME280;24026;49.446;8.576;2022-11-20T01:28:47;100099.63;;;12.14;55.12
38227;BME280;24026;49.446;8.576;2022-11-20T01:31:11;100087.38;;;12.13;55.32
38227;BME280;24026;49.446;8.576;2022-11-20T01:33:32;100090.03;;;12.13;55.17
38227;BME280;24026;49.446;8.576;2022-11-20T01:35:53;100083.91;;;12.12;55.19
38227;BME280;24026;49.446;8.576;2022-11-20T01:38:14;100087.38;;;12.13;55.12
38227;BME280;24026;49.446;8.576;2022-11-20T01:40:35;100085.78;;;12.12;55.07
38227;BME280;24026;49.446;8.576;2022-11-20T01:43:01;100087.38;;;12.13;54.95
38227;BME280;24026;49.446;8.576;2022-11-20T01:45:50;100082.88;;;12.13;55.00
38227;BME280;24026;49.446;8.576;2022-11-20T01:48:12;100085.78;;;12.12;55.17
38227;BME280;24026;49.446;8.576;2022-11-20T01:50:33;100084.16;;;12.11;55.06
38227;BME280;24026;49.446;8.576;2022-11-20T01:52:58;100088.44;;;12.12;55.05
38227;BME280;24026;49.446;8.576;2022-11-20T01:55:22;100078.06;;;12.10;55.09
38227;BME280;24026;49.446;8.576;2022-11-20T01:57:43;100078.59;;;12.12;55.05
38227;BME280;24026;49.446;8.576;2022-11-20T02:00:08;100075.13;;;12.12;55.17
38227;BME280;24026;49.446;8.576;2022-11-20T02:02:29;100083.09;;;12.07;55.13
38227;BME280;24026;49.446;8.576;2022-11-20T02:04:49;100081.50;;;12.11;54.96
38227;BME280;24026;49.446;8.576;2022-11-20T02:07:11;100079.09;;;12.09;54.98
38227;BME280;24026;49.446;8.576;2022-11-20T02:09:32;100071.94;;;12.10;55.01
38227;BME280;24026;49.446;8.576;2022-11-20T02:11:52;100074.59;;;12.10;55.15
38227;BME280;24026;49.446;8.576;2022-11-20T02:14:13;100062.84;;;12.11;55.01
38227;BME280;24026;49.446;8.576;2022-11-20T02:16:35;100061.28;;;12.10;54.97
38227;BME280;24026;49.446;8.576;2022-11-20T02:18:57;100077.25;;;12.10;55.17
38227;BME280;24026;49.446;8.576;2022-11-20T02:21:30;100082.00;;;12.08;55.12
38227;BME280;24026;49.446;8.576;2022-11-20T02:26:13;100067.41;;;12.10;54.99
38227;BME280;24026;49.446;8.576;2022-11-20T02:28:35;100065.53;;;12.11;55.11
38227;BME280;24026;49.446;8.576;2022-11-20T02:30:55;100063.13;;;12.09;55.07
38227;BME280;24026;49.446;8.576;2022-11-20T02:33:15;100068.69;;;12.08;54.93
38227;BME280;24026;49.446;8.576;2022-11-20T02:35:39;100065.78;;;12.09;55.09
38227;BME280;24026;49.446;8.576;2022-11-20T02:38:00;100063.13;;;12.09;54.93
38227;BME280;24026;49.446;8.576;2022-11-20T02:40:21;100072.97;;;12.09;54.94
38227;BME280;24026;49.446;8.576;2022-11-20T02:42:42;100063.38;;;12.08;55.04
38227;BME280;24026;49.446;8.576;2022-11-20T02:45:03;100053.78;;;12.07;54.94
38227;BME280;24026;49.446;8.576;2022-11-20T02:47:23;100048.47;;;12.07;55.00
38227;BME280;24026;49.446;8.576;2022-11-20T02:49:44;100047.94;;;12.04;55.12
38227;BME280;24026;49.446;8.576;2022-11-20T02:52:04;100037.00;;;12.06;54.86
38227;BME280;24026;49.446;8.576;2022-11-20T02:54:24;100041.53;;;12.05;54.89
38227;BME280;24026;49.446;8.576;2022-11-20T02:56:45;100039.66;;;12.06;55.06
38227;BME280;24026;49.446;8.576;2022-11-20T02:59:05;100040.47;;;12.07;54.89
38227;BME280;24026;49.446;8.576;2022-11-20T03:01:26;100046.59;;;12.07;54.96
38227;BME280;24026;49.446;8.576;2022-11-20T03:03:46;100049.50;;;12.05;54.98
38227;BME280;24026;49.446;8.576;2022-11-20T03:06:08;100043.13;;;12.07;54.97
38227;BME280;24026;49.446;8.576;2022-11-20T03:08:28;100033.78;;;12.04;55.01
38227;BME280;24026;49.446;8.576;2022-11-20T03:10:49;100041.00;;;12.03;54.95
38227;BME280;24026;49.446;8.576;2022-11-20T03:13:09;100038.84;;;12.05;55.07
38227;BME280;24026;49.446;8.576;2022-11-20T03:15:29;100039.94;;;12.04;55.12
38227;BME280;24026;49.446;8.576;2022-11-20T03:17:52;100036.19;;;12.05;54.97
38227;BME280;24026;49.446;8.576;2022-11-20T03:20:12;100045.28;;;12.04;54.94
38227;BME280;24026;49.446;8.576;2022-11-20T03:22:33;100038.31;;;12.03;55.17
38227;BME280;24026;49.446;8.576;2022-11-20T03:24:53;100025.25;;;12.02;55.23
38227;BME280;24026;49.446;8.576;2022-11-20T03:27:13;100027.66;;;12.03;54.91
38227;BME280;24026;49.446;8.576;2022-11-20T03:29:34;100026.63;;;12.04;55.12
38227;BME280;24026;49.446;8.576;2022-11-20T03:31:55;100020.72;;;12.02;55.08
38227;BME280;24026;49.446;8.576;2022-11-20T03:34:15;100027.66;;;12.03;55.06
38227;BME280;24026;49.446;8.576;2022-11-20T03:36:37;100039.13;;;12.04;55.06
38227;BME280;24026;49.446;8.576;2022-11-20T03:38:57;100037.28;;;12.04;55.11
38227;BME280;24026;49.446;8.576;2022-11-20T03:41:22;100037.53;;;12.03;55.14
38227;BME280;24026;49.446;8.576;2022-11-20T03:43:46;100025.00;;;12.03;55.06
38227;BME280;24026;49.446;8.576;2022-11-20T03:46:07;100026.31;;;12.01;55.20
38227;BME280;24026;49.446;8.576;2022-11-20T03:48:27;100034.88;;;12.03;55.01
38227;BME280;24026;49.446;8.576;2022-11-20T03:50:47;100034.03;;;12.02;55.18
38227;BME280;24026;49.446;8.576;2022-11-20T03:53:08;100037.53;;;12.03;55.18
38227;BME280;24026;49.446;8.576;2022-11-20T03:55:28;100040.19;;;12.03;55.03
38227;BME280;24026;49.446;8.576;2022-11-20T03:57:48;100035.38;;;12.00;55.00
38227;BME280;24026;49.446;8.576;2022-11-20T04:00:09;100028.72;;;12.02;55.16
38227;BME280;24026;49.446;8.576;2022-11-20T04:02:29;100030.34;;;12.03;55.03
38227;BME280;24026;49.446;8.576;2022-11-20T04:04:49;100027.94;;;12.02;55.15
38227;BME280;24026;49.446;8.576;2022-11-20T04:07:09;100017.53;;;12.00;55.11
38227;BME280;24026;49.446;8.576;2022-11-20T04:09:30;100010.06;;;12.02;55.17
38227;BME280;24026;49.446;8.576;2022-11-20T04:11:50;100021.00;;;12.01;55.24
38227;BME280;24026;49.446;8.576;2022-11-20T04:14:14;100019.16;;;12.01;55.15
38227;BME280;24026;49.446;8.576;2022-11-20T04:16:35;100021.00;;;12.01;55.11
38227;BME280;24026;49.446;8.576;2022-11-20T04:18:56;100014.88;;;12.00;55.10
38227;BME280;24026;49.446;8.576;2022-11-20T04:21:17;100019.41;;;12.00;55.12
38227;BME280;24026;49.446;8.576;2022-11-20T04:23:37;100014.88;;;12.00;55.25
38227;BME280;24026;49.446;8.576;2022-11-20T04:26:01;100007.94;;;11.99;55.19
38227;BME280;24026;49.446;8.576;2022-11-20T04:28:22;100012.19;;;12.00;55.31
38227;BME280;24026;49.446;8.576;2022-11-20T04:30:42;100016.19;;;11.98;55.23
38227;BME280;24026;49.446;8.576;2022-11-20T04:33:02;100015.91;;;11.99;55.29
38227;BME280;24026;49.446;8.576;2022-11-20T04:35:22;100012.19;;;12.00;55.26
38227;BME280;24026;49.446;8.576;2022-11-20T04:37:43;100019.66;;;11.98;55.37
38227;BME280;24026;49.446;8.576;2022-11-20T04:40:03;100015.38;;;11.97;55.36
38227;BME280;24026;49.446;8.576;2022-11-20T04:42:23;100022.31;;;11.98;55.33
38227;BME280;24026;49.446;8.576;2022-11-20T04:44:50;100010.06;;;11.97;55.59
38227;BME280;24026;49.446;8.576;2022-11-20T04:47:10;100010.31;;;11.96;55.41
38227;BME280;24026;49.446;8.576;2022-11-20T04:49:30;100011.66;;;11.98;55.54
38227;BME280;24026;49.446;8.576;2022-11-20T04:51:54;100014.59;;;11.97;55.58
38227;BME280;24026;49.446;8.576;2022-11-20T04:54:14;100015.91;;;11.94;55.58
38227;BME280;24026;49.446;8.576;2022-11-20T04:56:36;100015.63;;;11.96;55.52
38227;BME280;24026;49.446;8.576;2022-11-20T04:58:59;100012.72;;;11.97;55.64
38227;BME280;24026;49.446;8.576;2022-11-20T05:01:22;100014.59;;;11.97;55.61
38227;BME280;24026;49.446;8.576;2022-11-20T05:03:43;100012.72;;;11.97;55.63
38227;BME280;24026;49.446;8.576;2022-11-20T05:06:04;100013.81;;;11.96;55.71
38227;BME280;24026;49.446;8.576;2022-11-20T05:08:25;100015.38;;;11.97;55.58
38227;BME280;24026;49.446;8.576;2022-11-20T05:10:45;100008.47;;;11.96;55.75
38227;BME280;24026;49.446;8.576;2022-11-20T05:13:05;100007.41;;;11.97;55.67
38227;BME280;24026;49.446;8.576;2022-11-20T05:15:25;100003.94;;;11.97;55.74
38227;BME280;24026;49.446;8.576;2022-11-20T05:17:49;100000.47;;;11.96;55.59
38227;BME280;24026;49.446;8.576;2022-11-20T05:20:10;99998.88;;;11.95;55.63
38227;BME280;24026;49.446;8.576;2022-11-20T05:22:30;99987.41;;;11.95;55.67
38227;BME280;24026;49.446;8.576;2022-11-20T05:24:50;99990.88;;;11.95;55.75
38227;BME280;24026;49.446;8.576;2022-11-20T05:27:11;99990.88;;;11.95;55.69
38227;BME280;24026;49.446;8.576;2022-11-20T05:29:31;99980.22;;;11.95;55.75
38227;BME280;24026;49.446;8.576;2022-11-20T05:31:51;99992.50;;;11.96;55.78
38227;BME280;24026;49.446;8.576;2022-11-20T05:34:12;99992.50;;;11.96;55.72
38227;BME280;24026;49.446;8.576;2022-11-20T05:36:32;99989.00;;;11.96;55.75
38227;BME280;24026;49.446;8.576;2022-11-20T05:38:52;99996.19;;;11.95;55.94
38227;BME280;24026;49.446;8.576;2022-11-20T05:41:13;99991.94;;;11.94;55.92
38227;BME280;24026;49.446;8.576;2022-11-20T05:43:34;99992.75;;;11.95;55.84
38227;BME280;24026;49.446;8.576;2022-11-20T05:45:55;99992.19;;;11.93;56.02
38227;BME280;24026;49.446;8.576;2022-11-20T05:48:15;99993.81;;;11.94;55.97
38227;BME280;24026;49.446;8.576;2022-11-20T05:50:35;99992.19;;;11.93;56.00
38227;BME280;24026;49.446;8.576;2022-11-20T05:52:57;99986.06;;;11.92;55.87
38227;BME280;24026;49.446;8.576;2022-11-20T05:55:18;99985.28;;;11.92;56.01
38227;BME280;24026;49.446;8.576;2022-11-20T05:57:38;99988.47;;;11.94;55.73
38227;BME280;24026;49.446;8.576;2022-11-20T05:59:58;99989.25;;;11.94;55.83
38227;BME280;24026;49.446;8.576;2022-11-20T06:02:19;99991.38;;;11.92;55.96
38227;BME280;24026;49.446;8.576;2022-11-20T06:04:39;99986.84;;;11.93;55.90
38227;BME280;24026;49.446;8.576;2022-11-20T06:06:59;99974.38;;;11.93;56.03
38227;BME280;24026;49.446;8.576;2022-11-20T06:09:19;99966.63;;;11.92;55.94
38227;BME280;24026;49.446;8.576;2022-11-20T06:11:40;99970.09;;;11.92;56.15
38227;BME280;24026;49.446;8.576;2022-11-20T06:14:00;99959.44;;;11.92;55.96
38227;BME280;24026;49.446;8.576;2022-11-20T06:16:20;99962.09;;;11.92;56.09
38227;BME280;24026;49.446;8.576;2022-11-20T06:18:41;99969.03;;;11.93;55.99
38227;BME280;24026;49.446;8.576;2022-11-20T06:21:15;99976.22;;;11.93;56.06
38227;BME280;24026;49.446;8.576;2022-11-20T06:23:36;99982.84;;;11.90;56.09
38227;BME280;24026;49.446;8.576;2022-11-20T06:25:56;99975.41;;;11.92;56.08
38227;BME280;24026;49.446;8.576;2022-11-20T06:28:17;99976.22;;;11.93;56.00
38227;BME280;24026;49.446;8.576;2022-11-20T06:30:37;99976.22;;;11.93;56.16
38227;BME280;24026;49.446;8.576;2022-11-20T06:32:57;99968.22;;;11.93;56.19
38227;BME280;24026;49.446;8.576;2022-11-20T06:35:17;99974.63;;;11.92;56.25
38227;BME280;24026;49.446;8.576;2022-11-20T06:37:38;99975.41;;;11.92;56.05
38227;BME280;24026;49.446;8.576;2022-11-20T06:39:58;99986.84;;;11.93;56.08
38227;BME280;24026;49.446;8.576;2022-11-20T06:42:18;99980.75;;;11.92;56.24
38227;BME280;24026;49.446;8.576;2022-11-20T06:44:38;99975.41;;;11.92;56.19
38227;BME280;24026;49.446;8.576;2022-11-20T06:46:59;99971.69;;;11.93;56.13
38227;BME280;24026;49.446;8.576;2022-11-20T06:49:19;99980.75;;;11.92;56.33
38227;BME280;24026;49.446;8.576;2022-11-20T06:51:39;99986.06;;;11.92;56.25
38227;BME280;24026;49.446;8.576;2022-11-20T06:53:59;99984.19;;;11.93;56.15
38227;BME280;24026;49.446;8.576;2022-11-20T06:56:21;99986.06;;;11.92;56.16
38227;BME280;24026;49.446;8.576;2022-11-20T06:58:41;99987.94;;;11.92;56.42
38227;BME280;24026;49.446;8.576;2022-11-20T07:01:03;99994.06;;;11.92;56.26
38227;BME280;24026;49.446;8.576;2022-11-20T07:03:23;99993.25;;;11.92;56.19
38227;BME280;24026;49.446;8.576;2022-11-20T07:05:44;99990.59;;;11.92;56.40
38227;BME280;24026;49.446;8.576;2022-11-20T07:08:05;99994.84;;;11.93;56.28
38227;BME280;24026;49.446;8.576;2022-11-20T07:10:26;99988.47;;;11.94;56.28
38227;BME280;24026;49.446;8.576;2022-11-20T07:12:49;99990.09;;;11.95;56.15
38227;BME280;24026;49.446;8.576;2022-11-20T07:15:10;99992.47;;;11.91;56.45
38227;BME280;24026;49.446;8.576;2022-11-20T07:17:30;99990.59;;;11.92;56.43
38227;BME280;24026;49.446;8.576;2022-11-20T07:19:51;99990.59;;;11.92;56.33
38227;BME280;24026;49.446;8.576;2022-11-20T07:22:11;99988.72;;;11.92;56.41
38227;BME280;24026;49.446;8.576;2022-11-20T07:24:31;99999.13;;;11.94;56.45
38227;BME280;24026;49.446;8.576;2022-11-20T07:26:51;100002.56;;;11.94;56.39
38227;BME280;24026;49.446;8.576;2022-11-20T07:29:12;99999.38;;;11.92;56.36
38227;BME280;24026;49.446;8.576;2022-11-20T07:31:32;100001.00;;;11.93;56.46
38227;BME280;24026;49.446;8.576;2022-11-20T07:33:52;100002.03;;;11.92;56.55
38227;BME280;24026;49.446;8.576;2022-11-20T07:36:12;100001.00;;;11.93;56.38
38227;BME280;24026;49.446;8.576;2022-11-20T07:38:32;99994.84;;;11.93;56.52
38227;BME280;24026;49.446;8.576;2022-11-20T07:40:53;99995.13;;;11.91;56.64
38227;BME280;24026;49.446;8.576;2022-11-20T07:43:14;99999.38;;;11.92;56.68
38227;BME280;24026;49.446;8.576;2022-11-20T07:45:34;99998.59;;;11.92;56.47
38227;BME280;24026;49.446;8.576;2022-11-20T07:47:54;99999.38;;;11.92;56.52
38227;BME280;24026;49.446;8.576;2022-11-20T07:50:15;100002.84;;;11.93;56.63
38227;BME280;24026;49.446;8.576;2022-11-20T07:52:35;100000.16;;;11.93;56.55
38227;BME280;24026;49.446;8.576;2022-11-20T07:54:55;100008.16;;;11.93;56.66
38227;BME280;24026;49.446;8.576;2022-11-20T07:57:15;100012.44;;;11.94;56.62
38227;BME280;24026;49.446;8.576;2022-11-20T07:59:35;100000.75;;;11.95;56.70
38227;BME280;24026;49.446;8.576;2022-11-20T08:01:56;100007.66;;;11.96;56.71
38227;BME280;24026;49.446;8.576;2022-11-20T08:04:16;100013.22;;;11.94;56.55
38227;BME280;24026;49.446;8.576;2022-11-20T08:06:36;100014.84;;;11.95;56.58
38227;BME280;24026;49.446;8.576;2022-11-20T08:08:57;100012.19;;;11.95;56.60
38227;BME280;24026;49.446;8.576;2022-11-20T08:11:17;100006.06;;;11.95;56.70
38227;BME280;24026;49.446;8.576;2022-11-20T08:13:56;100012.19;;;11.95;56.72
38227;BME280;24026;49.446;8.576;2022-11-20T08:16:35;100012.19;;;11.95;56.75
38227;BME280;24026;49.446;8.576;2022-11-20T08:18:55;100013.22;;;11.94;56.81
38227;BME280;24026;49.446;8.576;2022-11-20T08:21:16;100010.56;;;11.94;56.70
38227;BME280;24026;49.446;8.576;2022-11-20T08:23:36;100015.63;;;11.96;56.75
38227;BME280;24026;49.446;8.576;2022-11-20T08:25:56;100024.44;;;11.96;56.79
38227;BME280;24026;49.446;8.576;2022-11-20T08:28:17;100017.25;;;11.97;56.71
38227;BME280;24026;49.446;8.576;2022-11-20T08:30:37;100023.38;;;11.97;56.79
38227;BME280;24026;49.446;8.576;2022-11-20T08:33:02;100029.78;;;11.96;56.88
38227;BME280;24026;49.446;8.576;2022-11-20T08:35:23;100032.44;;;11.96;56.84
38227;BME280;24026;49.446;8.576;2022-11-20T08:37:45;100041.22;;;11.97;56.91
38227;BME280;24026;49.446;8.576;2022-11-20T08:40:06;100037.50;;;11.98;56.77
38227;BME280;24026;49.446;8.576;2022-11-20T08:42:26;100040.97;;;11.98;56.87
38227;BME280;24026;49.446;8.576;2022-11-20T08:44:46;100040.97;;;11.98;56.88
38227;BME280;24026;49.446;8.576;2022-11-20T08:47:07;100046.81;;;12.00;56.84
38227;BME280;24026;49.446;8.576;2022-11-20T08:49:27;100047.88;;;11.99;56.91
38227;BME280;24026;49.446;8.576;2022-11-20T08:51:47;100048.97;;;11.98;57.01
38227;BME280;24026;49.446;8.576;2022-11-20T08:54:11;100045.22;;;11.99;56.96
38227;BME280;24026;49.446;8.576;2022-11-20T08:56:32;100042.56;;;11.99;57.03
38227;BME280;24026;49.446;8.576;2022-11-20T08:58:52;100058.53;;;11.99;57.02
38227;BME280;24026;49.446;8.576;2022-11-20T09:01:12;100052.16;;;12.00;57.05
38227;BME280;24026;49.446;8.576;2022-11-20T09:03:33;100057.47;;;12.00;56.94
38227;BME280;24026;49.446;8.576;2022-11-20T09:05:59;100062.81;;;12.00;57.01
38227;BME280;24026;49.446;8.576;2022-11-20T09:08:20;100068.13;;;12.00;57.14
38227;BME280;24026;49.446;8.576;2022-11-20T09:10:40;100067.09;;;12.01;57.05
38227;BME280;24026;49.446;8.576;2022-11-20T09:13:00;100069.75;;;12.01;57.11
38227;BME280;24026;49.446;8.576;2022-11-20T09:15:21;100061.19;;;11.99;57.20
38227;BME280;24026;49.446;8.576;2022-11-20T09:17:42;100069.75;;;12.01;57.18
38227;BME280;24026;49.446;8.576;2022-11-20T09:20:02;100069.50;;;12.03;57.14
38227;BME280;24026;49.446;8.576;2022-11-20T09:22:22;100067.09;;;12.01;57.26
38227;BME280;24026;49.446;8.576;2022-11-20T09:24:42;100070.53;;;12.02;57.28
38227;BME280;24026;49.446;8.576;2022-11-20T09:27:03;100062.81;;;12.00;57.24
38227;BME280;24026;49.446;8.576;2022-11-20T09:29:24;100065.22;;;12.02;57.16
38227;BME280;24026;49.446;8.576;2022-11-20T09:31:44;100057.22;;;12.02;57.23
38227;BME280;24026;49.446;8.576;2022-11-20T09:34:04;100070.28;;;12.03;57.18
38227;BME280;24026;49.446;8.576;2022-11-20T09:36:25;100069.75;;;12.01;57.31
38227;BME280;24026;49.446;8.576;2022-11-20T09:38:45;100067.88;;;12.02;57.20
38227;BME280;24026;49.446;8.576;2022-11-20T09:41:06;100074.25;;;12.01;57.47
38227;BME280;24026;49.446;8.576;2022-11-20T09:45:53;100078.28;;;12.03;57.32
38227;BME280;24026;49.446;8.576;2022-11-20T09:48:25;100074.81;;;12.03;57.46
38227;BME280;24026;49.446;8.576;2022-11-20T09:55:29;100074.56;;;12.04;57.47
38227;BME280;24026;49.446;8.576;2022-11-20T09:57:50;100069.25;;;12.04;57.33
38227;BME280;24026;49.446;8.576;2022-11-20T10:00:12;100071.09;;;12.04;57.49
38227;BME280;24026;49.446;8.576;2022-11-20T10:02:44;100072.69;;;12.05;57.46
38227;BME280;24026;49.446;8.576;2022-11-20T10:05:15;100073.50;;;12.05;57.40
38227;BME280;24026;49.446;8.576;2022-11-20T10:07:47;100081.22;;;12.07;57.44
38227;BME280;24026;49.446;8.576;2022-11-20T10:10:15;100082.28;;;12.06;57.42
38227;BME280;24026;49.446;8.576;2022-11-20T10:29:35;100058.59;;;12.04;57.58
38227;BME280;24026;49.446;8.576;2022-11-20T10:31:57;100061.78;;;12.07;57.47
38227;BME280;24026;49.446;8.576;2022-11-20T10:34:44;100069.25;;;12.04;57.58
38227;BME280;24026;49.446;8.576;2022-11-20T10:37:11;100065.25;;;12.07;57.51
38227;BME280;24026;49.446;8.576;2022-11-20T10:40:18;100071.63;;;12.06;57.42
38227;BME280;24026;49.446;8.576;2022-11-20T10:42:16;100062.56;;;12.07;57.49
38227;BME280;24026;49.446;8.576;2022-11-20T10:44:37;100057.00;;;12.09;57.53
38227;BME280;24026;49.446;8.576;2022-11-20T10:47:18;100050.06;;;12.08;57.54
38227;BME280;24026;49.446;8.576;2022-11-20T10:49:38;100050.31;;;12.06;57.54
38227;BME280;24026;49.446;8.576;2022-11-20T10:52:09;100047.66;;;12.06;57.64
38227;BME280;24026;49.446;8.576;2022-11-20T10:57:07;100046.59;;;12.07;57.58
38227;BME280;24026;49.446;8.576;2022-11-20T11:02:14;100051.13;;;12.07;57.62
38227;BME280;24026;49.446;8.576;2022-11-20T11:04:43;100048.47;;;12.07;57.74
38227;BME280;24026;49.446;8.576;2022-11-20T11:07:10;100042.31;;;12.06;57.77
38227;BME280;24026;49.446;8.576;2022-11-20T11:09:33;100044.72;;;12.08;57.67
38227;BME280;24026;49.446;8.576;2022-11-20T11:11:55;100042.31;;;12.06;57.63
38227;BME280;24026;49.446;8.576;2022-11-20T11:14:16;100023.41;;;12.08;57.76
38227;BME280;24026;49.446;8.576;2022-11-20T11:16:44;100027.69;;;12.09;57.72
38227;BME280;24026;49.446;8.576;2022-11-20T11:19:11;100023.16;;;12.09;57.90
38227;BME280;24026;49.446;8.576;2022-11-20T11:21:32;100019.97;;;12.07;58.00
38227;BME280;24026;49.446;8.576;2022-11-20T11:24:02;100013.31;;;12.10;58.09
38227;BME280;24026;49.446;8.576;2022-11-20T11:26:23;100014.66;;;12.12;58.11
38227;BME280;24026;49.446;8.576;2022-11-20T11:28:57;100008.28;;;12.13;58.17
38227;BME280;24026;49.446;8.576;2022-11-20T11:31:24;100012.78;;;12.13;58.19
38227;BME280;24026;49.446;8.576;2022-11-20T11:33:45;100015.75;;;12.16;58.07
38227;BME280;24026;49.446;8.576;2022-11-20T11:36:16;100002.69;;;12.20;57.94
38227;BME280;24026;49.446;8.576;2022-11-20T11:38:41;100001.63;;;12.21;57.96
38227;BME280;24026;49.446;8.576;2022-11-20T11:41:03;99998.44;;;12.24;57.93
38227;BME280;24026;49.446;8.576;2022-11-20T11:43:28;100002.97;;;12.23;57.93
38227;BME280;24026;49.446;8.576;2022-11-20T11:46:30;99994.47;;;12.27;57.94
38227;BME280;24026;49.446;8.576;2022-11-20T11:53:58;99986.75;;;12.35;57.75
38227;BME280;24026;49.446;8.576;2022-11-20T11:56:20;99986.22;;;12.38;57.71
38227;BME280;24026;49.446;8.576;2022-11-20T12:01:07;99981.44;;;12.40;57.74
38227;BME280;24026;49.446;8.576;2022-11-20T12:03:37;99984.63;;;12.42;57.79
38227;BME280;24026;49.446;8.576;2022-11-20T12:05:59;99981.44;;;12.46;57.81
38227;BME280;24026;49.446;8.576;2022-11-20T12:08:23;99976.63;;;12.48;57.79
38227;BME280;24026;49.446;8.576;2022-11-20T12:11:00;99977.47;;;12.48;57.74
38227;BME280;24026;49.446;8.576;2022-11-20T12:15:50;99970.00;;;12.50;57.73
38227;BME280;24026;49.446;8.576;2022-11-20T12:18:15;99966.28;;;12.51;57.73
38227;BME280;24026;49.446;8.576;2022-11-20T12:20:39;99965.19;;;12.52;57.87
38227;BME280;24026;49.446;8.576;2022-11-20T12:23:04;99971.88;;;12.55;57.85
38227;BME280;24026;49.446;8.576;2022-11-20T12:25:30;99960.13;;;12.56;58.13
38227;BME280;24026;49.446;8.576;2022-11-20T12:27:59;99968.13;;;12.56;57.82
38227;BME280;24026;49.446;8.576;2022-11-20T12:30:24;99974.00;;;12.58;57.86
38227;BME280;24026;49.446;8.576;2022-11-20T12:32:49;99967.06;;;12.57;57.83
38227;BME280;24026;49.446;8.576;2022-11-20T12:38:08;99952.41;;;12.59;
38227;BME280;24026;49.446;8.576;2022-11-20T12:48:38;99960.13;;;12.61;57.95
38227;BME280;24026;49.446;8.576;2022-11-20T12:53:42;99951.09;;;12.62;57.92
38227;BME280;24026;49.446;8.576;2022-11-20T13:00:58;99960.13;;;12.61;58.07
38227;BME280;24026;49.446;8.576;2022-11-20T13:06:14;99953.22;;;12.60;58.20
38227;BME280;24026;49.446;8.576;2022-11-20T13:08:36;99945.75;;;12.62;58.13
38227;BME280;24026;49.446;8.576;2022-11-20T13:14:00;99943.34;;;12.60;58.17
38227;BME280;24026;49.446;8.576;2022-11-20T13:16:14;99936.41;;;12.59;58.21
38227;BME280;24026;49.446;8.576;2022-11-20T13:18:38;99934.56;;;12.60;58.24
38227;BME280;24026;49.446;8.576;2022-11-20T13:20:59;99930.81;;;12.61;58.22
38227;BME280;24026;49.446;8.576;2022-11-20T13:23:23;99931.06;;;12.59;58.20
38227;BME280;24026;49.446;8.576;2022-11-20T13:25:44;99926.56;;;12.60;58.20
38227;BME280;24026;49.446;8.576;2022-11-20T13:28:27;99925.47;;;12.61;58.16
38227;BME280;24026;49.446;8.576;2022-11-20T13:30:48;99914.81;;;12.61;58.21
38227;BME280;24026;49.446;8.576;2022-11-20T13:33:21;99925.47;;;12.61;58.19